Time,TemperatureF,DewpointF,PressureIn,WindDirection,WindDirectionDegrees,WindSpeedMPH,WindSpeedGustMPH,Humidity,HourlyPrecipIn,Conditions,Clouds,dailyrainin,SoftwareType,DateUTC
2013-02-03 00:01:00,26.0,24.0,-100.00,WNW,295,1.0,2.0,92,-99.99,,,-99.99,,2013-02-03 08:01:00,
2013-02-03 00:10:00,24.0,22.0,-100.00,North,360,1.0,1.0,91,-99.99,,,-99.99,,2013-02-03 08:10:00,
2013-02-03 01:02:00,24.0,22.0,-100.00,North,360,1.0,1.0,91,-99.99,,,-99.99,,2013-02-03 09:02:00,
2013-02-03 02:01:00,24.0,22.0,-100.00,East,85,1.0,1.0,91,-99.99,,,-99.99,,2013-02-03 10:01:00,
2013-02-03 02:10:00,25.0,23.0,-100.00,SE,130,2.0,3.0,91,-99.99,,,-99.99,,2013-02-03 10:10:00,
2013-02-03 02:11:00,24.0,22.0,-100.00,East,85,1.0,1.0,91,-99.99,,,-99.99,,2013-02-03 10:11:00,
2013-02-03 03:02:00,25.0,23.0,-100.00,SE,130,2.0,3.0,91,-99.99,,,-99.99,,2013-02-03 11:02:00,
2013-02-03 04:02:00,25.0,23.0,-100.00,NW,315,0.0,1.0,91,-99.99,,,-99.99,,2013-02-03 12:02:00,
2013-02-03 04:11:00,25.0,23.0,-100.00,NW,315,0.0,1.0,91,-99.99,,,-99.99,,2013-02-03 12:11:00,
2013-02-03 05:03:00,26.0,24.0,-100.00,SSE,150,3.0,5.0,92,-99.99,,,-99.99,,2013-02-03 13:03:00,
2013-02-03 05:10:00,26.0,24.0,-100.00,WNW,290,1.0,1.0,92,-99.99,,,-99.99,,2013-02-03 13:10:00,
2013-02-03 06:02:00,26.0,24.0,-100.00,WNW,290,1.0,1.0,92,-99.99,,,-99.99,,2013-02-03 14:02:00,
2013-02-03 07:03:00,26.0,24.0,-100.00,NNW,340,1.0,5.0,92,-99.99,,,-99.99,,2013-02-03 15:03:00,
2013-02-03 07:10:00,26.0,24.0,-100.00,NW,305,1.0,5.0,92,-99.99,,,-99.99,,2013-02-03 15:10:00,
2013-02-03 07:11:00,26.0,24.0,-100.00,NNW,340,1.0,5.0,92,-99.99,,,-99.99,,2013-02-03 15:11:00,
2013-02-03 08:02:00,26.0,24.0,-100.00,NW,305,1.0,5.0,92,-99.99,,,-99.99,,2013-02-03 16:02:00,
2013-02-03 09:02:00,26.0,24.0,-100.00,North,360,2.0,3.0,92,-99.99,,,-99.99,,2013-02-03 17:02:00,
2013-02-03 09:11:00,26.0,24.0,-100.00,North,360,2.0,3.0,92,-99.99,,,-99.99,,2013-02-03 17:11:00,
2013-02-03 09:20:00,27.0,25.0,-100.00,NNW,340,2.0,5.0,92,-99.99,,,-99.99,,2013-02-03 17:20:00,
2013-02-03 10:02:00,27.0,25.0,-100.00,NNW,340,2.0,5.0,92,-99.99,,,-99.99,,2013-02-03 18:02:00,
2013-02-03 10:10:00,29.0,28.0,-100.00,NW,325,2.0,7.0,95,-99.99,,,-99.99,,2013-02-03 18:10:00,
2013-02-03 10:11:00,27.0,25.0,-100.00,NNW,340,2.0,5.0,92,-99.99,,,-99.99,,2013-02-03 18:11:00,
2013-02-03 11:02:00,29.0,28.0,-100.00,NW,325,2.0,7.0,95,-99.99,,,-99.99,,2013-02-03 19:02:00,
2013-02-03 12:01:00,30.0,28.0,-100.00,SSE,150,7.0,10.0,92,-99.99,,,-99.99,,2013-02-03 20:01:00,
2013-02-03 12:12:00,30.0,28.0,-100.00,SSE,150,7.0,10.0,92,-99.99,,,-99.99,,2013-02-03 20:12:00,
2013-02-03 13:03:00,31.0,28.0,-100.00,SSE,150,6.0,9.0,88,-99.99,,,-99.99,,2013-02-03 21:03:00,
2013-02-03 13:10:00,33.0,28.0,-100.00,SE,130,6.0,13.0,81,-99.99,,,-99.99,,2013-02-03 21:10:00,
2013-02-03 14:01:00,33.0,28.0,-100.00,SE,130,6.0,13.0,81,-99.99,,,-99.99,,2013-02-03 22:01:00,
2013-02-03 15:01:00,34.0,29.0,-100.00,SE,140,7.0,12.0,81,-99.99,,,-99.99,,2013-02-03 23:01:00,
2013-02-03 15:10:00,34.0,29.0,-100.00,SE,130,6.0,9.0,81,-99.99,,,-99.99,,2013-02-03 23:10:00,
2013-02-03 15:11:00,34.0,29.0,-100.00,SE,140,7.0,12.0,81,-99.99,,,-99.99,,2013-02-03 23:11:00,
2013-02-03 16:01:00,34.0,29.0,-100.00,SE,130,6.0,9.0,81,-99.99,,,-99.99,,2013-02-04 00:01:00,
2013-02-03 17:01:00,34.0,28.0,-100.00,SE,135,2.0,6.0,78,-99.99,,,-99.99,,2013-02-04 01:01:00,
2013-02-03 17:11:00,34.0,28.0,-100.00,SE,135,2.0,6.0,78,-99.99,,,-99.99,,2013-02-04 01:11:00,
2013-02-03 18:01:00,33.0,28.0,-100.00,SSE,160,2.0,3.0,81,-99.99,,,-99.99,,2013-02-04 02:01:00,
2013-02-03 18:10:00,31.0,27.0,-100.00,SSE,155,1.0,1.0,84,-99.99,,,-99.99,,2013-02-04 02:10:00,
2013-02-03 19:02:00,31.0,27.0,-100.00,SSE,155,1.0,1.0,84,-99.99,,,-99.99,,2013-02-04 03:02:00,
2013-02-03 20:01:00,30.0,27.0,-100.00,NW,325,0.0,2.0,88,-99.99,,,-99.99,,2013-02-04 04:01:00,
2013-02-03 20:10:00,30.0,26.0,-100.00,North,10,0.0,1.0,84,-99.99,,,-99.99,,2013-02-04 04:10:00,
2013-02-03 20:11:00,30.0,27.0,-100.00,NW,325,0.0,2.0,88,-99.99,,,-99.99,,2013-02-04 04:11:00,
2013-02-03 21:03:00,30.0,26.0,-100.00,North,10,0.0,1.0,84,-99.99,,,-99.99,,2013-02-04 05:03:00,
2013-02-03 22:01:00,30.0,27.0,-100.00,NNW,330,2.0,3.0,88,-99.99,,,-99.99,,2013-02-04 06:01:00,
2013-02-03 22:11:00,30.0,27.0,-100.00,NNW,330,2.0,3.0,88,-99.99,,,-99.99,,2013-02-04 06:11:00,
2013-02-03 22:20:00,31.0,28.0,-100.00,NW,310,3.0,6.0,88,-99.99,,,-99.99,,2013-02-04 06:20:00,
2013-02-03 23:01:00,31.0,28.0,-100.00,NW,310,3.0,6.0,88,-99.99,,,-99.99,,2013-02-04 07:01:00,
2013-02-03 23:10:00,31.0,28.0,-100.00,SE,130,3.0,5.0,88,-99.99,,,-99.99,,2013-02-04 07:10:00,
2013-02-03 23:11:00,31.0,28.0,-100.00,NW,310,3.0,6.0,88,-99.99,,,-99.99,,2013-02-04 07:11:00,